createdAt,value
2023-04-28T00:01:02.442Z,11.8
2023-04-28T00:02:07.121Z,11.8
2023-04-28T00:03:11.873Z,11.8
2023-04-28T00:04:16.961Z,11.8
2023-04-28T00:05:21.592Z,11.8
2023-04-28T00:06:26.056Z,11.8
2023-04-28T00:07:31.021Z,11.8
2023-04-28T00:08:35.620Z,11.8
2023-04-28T00:09:40.425Z,11.8
2023-04-28T00:10:45.271Z,11.8
2023-04-28T00:11:50.081Z,11.8
2023-04-28T00:12:54.957Z,11.8
2023-04-28T00:13:59.530Z,11.8
2023-04-28T00:15:04.344Z,11.5
2023-04-28T00:16:09.110Z,11.5
2023-04-28T00:17:14.130Z,11.5
2023-04-28T00:18:18.709Z,11.5
2023-04-28T00:19:23.446Z,11.5
2023-04-28T00:20:28.355Z,11.5
2023-04-28T00:21:32.979Z,11.5
2023-04-28T00:22:37.778Z,11.5
2023-04-28T00:23:42.587Z,11.5
2023-04-28T00:24:47.366Z,11.5
2023-04-28T00:25:52.333Z,11.5
2023-04-28T00:26:57.069Z,11.5
2023-04-28T00:28:01.739Z,11.5
2023-04-28T00:29:06.500Z,11.5
2023-04-28T00:30:11.269Z,11.5
2023-04-28T00:31:16.122Z,11.5
2023-04-28T00:32:20.885Z,11.5
2023-04-28T00:33:25.599Z,11.5
2023-04-28T00:34:30.358Z,11.7
2023-04-28T00:35:35.124Z,11.7
2023-04-28T00:36:40.116Z,11.7
2023-04-28T00:37:44.936Z,11.7
2023-04-28T00:38:49.553Z,11.7
2023-04-28T00:39:54.265Z,11.7
2023-04-28T00:40:59.050Z,11.7
2023-04-28T00:42:04.015Z,11.7
2023-04-28T00:43:08.588Z,11.7
2023-04-28T00:44:13.494Z,11.7
2023-04-28T00:45:18.139Z,11.7
2023-04-28T00:46:22.937Z,11.7
2023-04-28T00:47:27.703Z,11.7
2023-04-28T00:48:32.429Z,11.7
2023-04-28T00:49:37.213Z,11.7
2023-04-28T00:50:41.957Z,11.7
2023-04-28T00:51:46.747Z,11.7
2023-04-28T00:52:51.697Z,11.7
2023-04-28T00:53:56.513Z,11.7
2023-04-28T00:55:01.249Z,11.5
2023-04-28T00:56:05.953Z,11.5
2023-04-28T00:57:10.681Z,11.5
2023-04-28T00:58:15.445Z,11.5
2023-04-28T00:59:20.416Z,11.5
2023-04-28T01:00:25.028Z,11.5
2023-04-28T01:01:30.004Z,11.5
2023-04-28T01:02:34.646Z,11.5
2023-04-28T01:03:39.727Z,11.5
2023-04-28T01:04:44.333Z,11.5
2023-04-28T01:05:49.117Z,11.5
2023-04-28T01:06:53.938Z,11.5
2023-04-28T01:07:58.550Z,11.5
2023-04-28T01:09:03.474Z,11.5
2023-04-28T01:10:08.128Z,11.5
2023-04-28T01:11:13.013Z,11.5
2023-04-28T01:12:17.826Z,11.5
2023-04-28T01:13:22.548Z,11.5
2023-04-28T01:14:27.202Z,11.5
2023-04-28T01:15:31.990Z,11.5
2023-04-28T01:16:36.933Z,11.5
2023-04-28T01:17:41.550Z,11.5
2023-04-28T01:18:46.298Z,11.5
2023-04-28T01:19:51.063Z,11.5
2023-04-28T01:20:55.975Z,11.5
2023-04-28T01:22:00.626Z,11.5
2023-04-28T01:23:05.519Z,11.5
2023-04-28T01:24:10.130Z,11.5
2023-04-28T01:25:14.908Z,11.5
2023-04-28T01:26:19.873Z,11.5
2023-04-28T01:27:24.604Z,11.5
2023-04-28T01:28:29.315Z,11.5
2023-04-28T01:29:34.234Z,11.5
2023-04-28T01:30:38.938Z,11.5
2023-04-28T01:31:43.657Z,11.5
2023-04-28T01:32:48.377Z,11.5
2023-04-28T01:33:53.110Z,11.5
2023-04-28T01:34:58.113Z,11.3
2023-04-28T01:36:02.667Z,11.3
2023-04-28T01:37:07.446Z,11.3
2023-04-28T01:38:12.273Z,11.3
2023-04-28T01:39:17.020Z,11.3
2023-04-28T01:40:21.814Z,11.3
2023-04-28T01:41:26.748Z,11.3
2023-04-28T01:42:31.307Z,11.3
2023-04-28T01:43:36.121Z,11.3
2023-04-28T01:44:40.988Z,11.3
2023-04-28T01:45:45.700Z,11.3
2023-04-28T01:46:50.451Z,11.3
2023-04-28T01:47:55.243Z,11.3
2023-04-28T01:48:59.978Z,11.3
2023-04-28T01:50:04.880Z,11.3
2023-04-28T01:51:09.521Z,11.3
2023-04-28T01:52:14.418Z,11.3
2023-04-28T01:53:19.040Z,11.3
2023-04-28T01:54:25.271Z,11.1
2023-04-28T01:55:30.206Z,11.1
2023-04-28T01:56:34.837Z,11.1
2023-04-28T01:57:39.629Z,11.1
2023-04-28T01:58:44.358Z,11.1
2023-04-28T01:59:49.123Z,11.1
2023-04-28T02:00:54.096Z,11.1
2023-04-28T02:01:58.877Z,11.1
2023-04-28T02:03:03.537Z,11.1
2023-04-28T02:04:08.360Z,11.1
2023-04-28T02:05:13.081Z,11.1
2023-04-28T02:06:17.858Z,11.1
2023-04-28T02:07:22.642Z,11.1
2023-04-28T02:08:27.640Z,11.1
2023-04-28T02:09:32.251Z,11.1
2023-04-28T02:10:37.859Z,11.1
2023-04-28T02:11:41.877Z,11.1
2023-04-28T02:12:46.511Z,11.1
2023-04-28T02:13:51.306Z,11.1
2023-04-28T02:14:57.869Z,10.5
2023-04-28T02:16:02.553Z,10.5
2023-04-28T02:17:07.266Z,10.5
2023-04-28T02:18:12.002Z,10.5
2023-04-28T02:19:16.769Z,10.5
2023-04-28T02:20:21.539Z,10.5
2023-04-28T02:21:26.391Z,10.5
2023-04-28T02:22:31.196Z,10.5
2023-04-28T02:23:35.923Z,10.5
2023-04-28T02:24:40.837Z,10.5
2023-04-28T02:25:45.671Z,10.5
2023-04-28T02:26:50.243Z,10.5
2023-04-28T02:27:55.035Z,10.5
2023-04-28T02:28:59.911Z,10.5
2023-04-28T02:30:04.573Z,10.5
2023-04-28T02:31:09.580Z,10.5
2023-04-28T02:32:14.441Z,10.5
2023-04-28T02:33:18.862Z,10.5
2023-04-28T02:34:25.264Z,10.5
2023-04-28T02:35:30.047Z,10.5
2023-04-28T02:36:34.880Z,10.5
2023-04-28T02:37:39.560Z,10.5
2023-04-28T02:38:44.420Z,10.5
2023-04-28T02:39:49.162Z,10.5
2023-04-28T02:40:53.914Z,10.5
2023-04-28T02:41:58.718Z,10.5
2023-04-28T02:43:03.465Z,10.5
2023-04-28T02:44:08.242Z,10.5
2023-04-28T02:45:13.026Z,10.5
2023-04-28T02:46:18.002Z,10.5
2023-04-28T02:47:22.800Z,10.5
2023-04-28T02:48:27.586Z,10.5
2023-04-28T02:49:32.210Z,10.5
2023-04-28T02:50:37.128Z,10.5
2023-04-28T02:51:41.836Z,10.5
2023-04-28T02:52:48.401Z,10.5
2023-04-28T02:53:51.223Z,10.5
2023-04-28T02:54:57.570Z,10.4
2023-04-28T02:56:02.369Z,10.4
2023-04-28T02:57:07.188Z,10.4
2023-04-28T02:58:11.922Z,10.4
2023-04-28T02:59:16.713Z,10.4
2023-04-28T03:00:21.520Z,10.4
2023-04-28T03:01:26.331Z,10.4
2023-04-28T03:02:31.250Z,10.4
2023-04-28T03:03:36.199Z,10.4
2023-04-28T03:04:40.644Z,10.4
2023-04-28T03:05:45.524Z,10.4
2023-04-28T03:06:50.237Z,10.4
2023-04-28T03:07:55.156Z,10.4
2023-04-28T03:08:59.776Z,10.4
2023-04-28T03:10:04.519Z,10.4
2023-04-28T03:11:09.306Z,10.4
2023-04-28T03:12:14.109Z,10.4
2023-04-28T03:13:18.876Z,10.4
2023-04-28T03:14:25.240Z,10.3
2023-04-28T03:15:30.051Z,10.3
2023-04-28T03:16:34.886Z,10.3
2023-04-28T03:17:39.696Z,10.3
2023-04-28T03:18:44.432Z,10.3
2023-04-28T03:19:49.413Z,10.3
2023-04-28T03:20:53.959Z,10.3
2023-04-28T03:21:58.766Z,10.3
2023-04-28T03:23:03.668Z,10.3
2023-04-28T03:24:08.295Z,10.3
2023-04-28T03:25:13.077Z,10.3
2023-04-28T03:26:17.833Z,10.3
2023-04-28T03:27:22.604Z,10.3
2023-04-28T03:28:27.545Z,10.3
2023-04-28T03:29:32.282Z,10.3
2023-04-28T03:30:37.080Z,10.3
2023-04-28T03:31:41.682Z,10.3
2023-04-28T03:32:46.692Z,10.3
2023-04-28T03:33:51.445Z,10.3
2023-04-28T03:34:57.794Z,9.8
2023-04-28T03:36:02.423Z,9.8
2023-04-28T03:37:07.338Z,9.8
2023-04-28T03:38:11.995Z,9.8
2023-04-28T03:39:16.765Z,9.8
2023-04-28T03:40:21.711Z,9.8
2023-04-28T03:41:26.350Z,9.8
2023-04-28T03:42:31.158Z,9.8
2023-04-28T03:43:35.892Z,9.8
2023-04-28T03:44:40.666Z,9.8
2023-04-28T03:45:45.493Z,9.8
2023-04-28T03:46:50.243Z,9.8
2023-04-28T03:47:55.195Z,9.8
2023-04-28T03:48:59.786Z,9.8
2023-04-28T03:50:04.592Z,9.8
2023-04-28T03:51:09.494Z,9.8
2023-04-28T03:52:14.310Z,9.8
2023-04-28T03:53:19.024Z,9.8
2023-04-28T03:54:25.205Z,9.8
2023-04-28T03:55:30.187Z,9.8
2023-04-28T03:56:34.914Z,9.8
2023-04-28T03:57:39.751Z,9.8
2023-04-28T03:58:44.314Z,9.8
2023-04-28T03:59:49.174Z,9.8
2023-04-28T04:00:53.838Z,9.8
2023-04-28T04:01:58.608Z,9.8
2023-04-28T04:03:03.518Z,9.8
2023-04-28T04:04:08.400Z,9.8
2023-04-28T04:05:13.895Z,9.8
2023-04-28T04:06:17.983Z,9.8
2023-04-28T04:07:22.541Z,9.8
2023-04-28T04:08:27.326Z,9.8
2023-04-28T04:09:32.143Z,9.8
2023-04-28T04:10:36.926Z,9.8
2023-04-28T04:11:41.724Z,9.8
2023-04-28T04:12:46.492Z,9.8
2023-04-28T04:13:51.275Z,9.8
2023-04-28T04:14:57.670Z,9.6
2023-04-28T04:16:02.497Z,9.6
2023-04-28T04:17:07.208Z,9.6
2023-04-28T04:18:12.203Z,9.6
2023-04-28T04:19:16.754Z,9.6
2023-04-28T04:20:21.544Z,9.6
2023-04-28T04:21:26.487Z,9.6
2023-04-28T04:22:31.134Z,9.6
2023-04-28T04:23:35.896Z,9.6
2023-04-28T04:24:40.674Z,9.6
2023-04-28T04:25:45.463Z,9.6
2023-04-28T04:26:50.275Z,9.6
2023-04-28T04:27:55.025Z,9.6
2023-04-28T04:28:59.908Z,9.6
2023-04-28T04:30:04.543Z,9.6
2023-04-28T04:31:09.328Z,9.6
2023-04-28T04:32:14.120Z,9.6
2023-04-28T04:33:19.028Z,9.6
2023-04-28T04:34:23.649Z,9.6
2023-04-28T04:35:28.445Z,9.6
2023-04-28T04:36:33.244Z,9.6
2023-04-28T04:37:38.028Z,9.6
2023-04-28T04:38:42.988Z,9.6
2023-04-28T04:39:47.579Z,9.6
2023-04-28T04:40:52.511Z,9.6
2023-04-28T04:41:57.124Z,9.6
2023-04-28T04:43:01.956Z,9.6
2023-04-28T04:44:06.652Z,9.6
2023-04-28T04:45:11.430Z,9.6
2023-04-28T04:46:16.250Z,9.6
2023-04-28T04:47:20.972Z,9.6
2023-04-28T04:48:26.049Z,9.6
2023-04-28T04:49:30.770Z,9.6
2023-04-28T04:50:35.323Z,9.6
2023-04-28T04:51:40.089Z,9.6
2023-04-28T04:52:45.008Z,9.6
2023-04-28T04:53:49.614Z,9.6
2023-04-28T04:54:54.395Z,9.5
2023-04-28T04:55:59.154Z,9.5
2023-04-28T04:57:03.918Z,9.5
2023-04-28T04:58:08.702Z,9.5
2023-04-28T04:59:13.622Z,9.5
2023-04-28T05:00:18.239Z,9.5
2023-04-28T05:01:23.083Z,9.5
2023-04-28T05:02:27.790Z,9.5
2023-04-28T05:03:32.709Z,9.5
2023-04-28T05:04:37.410Z,9.5
2023-04-28T05:05:42.839Z,9.5
2023-04-28T05:06:46.861Z,9.5
2023-04-28T05:07:51.645Z,9.5
2023-04-28T05:08:56.503Z,9.5
2023-04-28T05:10:01.211Z,9.5
2023-04-28T05:11:06.004Z,9.5
2023-04-28T05:12:10.754Z,9.5
2023-04-28T05:13:15.493Z,9.5
2023-04-28T05:14:20.294Z,9.5
2023-04-28T05:15:25.051Z,9.5
2023-04-28T05:16:29.957Z,9.5
2023-04-28T05:17:34.792Z,9.5
2023-04-28T05:18:39.421Z,9.5
2023-04-28T05:19:44.285Z,9.5
2023-04-28T05:20:48.957Z,9.5
2023-04-28T05:21:53.699Z,9.5
2023-04-28T05:22:58.452Z,9.5
2023-04-28T05:24:03.259Z,9.5
2023-04-28T05:25:07.998Z,9.5
2023-04-28T05:26:12.786Z,9.5
2023-04-28T05:27:17.710Z,9.5
2023-04-28T05:28:22.422Z,9.5
2023-04-28T05:29:27.095Z,9.5
2023-04-28T05:30:31.965Z,9.5
2023-04-28T05:31:36.834Z,9.5
2023-04-28T05:32:41.454Z,9.5
2023-04-28T05:33:46.346Z,9.5
2023-04-28T05:34:50.935Z,9.7
2023-04-28T05:35:55.742Z,9.7
2023-04-28T05:37:00.591Z,9.7
2023-04-28T05:38:05.290Z,9.7
2023-04-28T05:39:10.216Z,9.7
2023-04-28T05:40:14.814Z,9.7
2023-04-28T05:42:16.797Z,9.7
2023-04-28T05:43:17.391Z,9.7
2023-04-28T05:44:18.151Z,9.7
2023-04-28T05:45:21.680Z,9.7
2023-04-28T05:46:30.428Z,9.7
2023-04-28T05:47:31.366Z,9.7
2023-04-28T05:48:35.967Z,9.7
2023-04-28T05:49:40.824Z,9.7
2023-04-28T05:50:45.497Z,9.7
2023-04-28T05:51:50.273Z,9.7
2023-04-28T05:52:55.259Z,9.7
2023-04-28T05:54:00.083Z,9.7
2023-04-28T05:55:04.697Z,9.7
2023-04-28T05:56:09.612Z,9.7
2023-04-28T05:57:14.234Z,9.7
2023-04-28T05:58:18.945Z,9.7
2023-04-28T05:59:23.873Z,9.7
2023-04-28T06:00:28.565Z,9.7
2023-04-28T06:01:33.244Z,9.6
2023-04-28T06:02:38.045Z,9.6
2023-04-28T06:03:43.105Z,9.6
2023-04-28T06:05:53.416Z,9.6
2023-04-28T06:06:57.309Z,9.6
2023-04-28T06:08:02.007Z,9.6
2023-04-28T06:09:06.729Z,9.6
2023-04-28T06:10:11.646Z,9.6
2023-04-28T06:11:16.220Z,9.6
2023-04-28T06:12:21.042Z,9.6
2023-04-28T06:13:25.850Z,9.6
2023-04-28T06:14:30.818Z,9.6
2023-04-28T06:15:35.406Z,9.6
2023-04-28T06:16:40.361Z,9.6
2023-04-28T06:17:44.986Z,9.6
2023-04-28T06:18:49.920Z,9.6
2023-04-28T06:19:54.620Z,9.6
2023-04-28T06:20:59.270Z,9.6
2023-04-28T06:22:04.085Z,9.7
2023-04-28T06:23:08.873Z,9.7
2023-04-28T06:24:13.645Z,9.7
2023-04-28T06:25:18.412Z,9.7
2023-04-28T06:26:23.195Z,9.7
2023-04-28T06:27:27.956Z,9.7
2023-04-28T06:28:32.751Z,9.7
2023-04-28T06:29:37.697Z,9.7
2023-04-28T06:30:42.510Z,9.7
2023-04-28T06:31:47.146Z,9.7
2023-04-28T06:32:52.202Z,9.7
2023-04-28T06:33:56.874Z,9.7
2023-04-28T06:35:01.584Z,9.7
2023-04-28T06:36:06.237Z,9.7
2023-04-28T06:37:11.010Z,9.7
2023-04-28T06:38:15.941Z,9.7
2023-04-28T06:39:20.656Z,9.7
2023-04-28T06:40:25.434Z,9.7
2023-04-28T06:41:30.293Z,9.7
2023-04-28T06:42:35.116Z,9.7
2023-04-28T06:43:39.834Z,9.7
2023-04-28T06:44:44.463Z,9.7
2023-04-28T06:45:49.264Z,9.7
2023-04-28T06:46:54.135Z,9.7
2023-04-28T06:47:59.031Z,9.7
2023-04-28T06:49:03.606Z,9.7
2023-04-28T06:50:08.446Z,9.7
2023-04-28T06:51:13.245Z,9.7
2023-04-28T06:52:18.071Z,9.7
2023-04-28T06:53:22.754Z,9.7
2023-04-28T06:54:27.538Z,9.7
2023-04-28T06:55:32.584Z,9.7
2023-04-28T06:56:37.154Z,9.7
2023-04-28T06:57:41.869Z,9.7
2023-04-28T06:58:46.654Z,9.7
2023-04-28T06:59:51.419Z,9.7
2023-04-28T07:00:56.245Z,9.7
2023-04-28T07:02:01.027Z,9.9
2023-04-28T07:03:05.854Z,9.9
2023-04-28T07:04:10.639Z,9.9
2023-04-28T07:05:16.456Z,9.9
2023-04-28T07:06:20.161Z,9.9
2023-04-28T07:07:24.906Z,9.9
2023-04-28T07:08:29.763Z,9.9
2023-04-28T07:09:34.424Z,9.9
2023-04-28T07:10:39.196Z,9.9
2023-04-28T07:11:44.013Z,9.9
2023-04-28T07:12:48.750Z,9.9
2023-04-28T07:13:53.508Z,9.9
2023-04-28T07:14:58.276Z,9.9
2023-04-28T07:16:03.076Z,9.9
2023-04-28T07:17:08.010Z,9.9
2023-04-28T07:18:12.639Z,9.9
2023-04-28T07:19:17.569Z,9.9
2023-04-28T07:20:22.150Z,9.9
2023-04-28T07:21:26.939Z,10.4
2023-04-28T07:22:31.705Z,10.4
2023-04-28T07:23:36.464Z,10.4
2023-04-28T07:25:27.279Z,10.4
2023-04-28T07:26:28.138Z,10.4
2023-04-28T07:27:28.891Z,10.4
2023-04-28T07:28:29.645Z,10.4
2023-04-28T07:29:30.516Z,10.4
2023-04-28T07:30:31.301Z,10.4
2023-04-28T07:31:32.387Z,10.4
2023-04-28T07:32:33.360Z,10.4
2023-04-28T07:33:34.352Z,10.4
2023-04-28T07:34:35.177Z,10.4
2023-04-28T07:35:35.900Z,10.4
2023-04-28T07:36:36.881Z,10.4
2023-04-28T07:37:43.594Z,10.4
2023-04-28T07:38:44.357Z,10.4
2023-04-28T07:39:45.553Z,10.4
2023-04-28T07:40:46.486Z,10.4
2023-04-28T07:41:47.554Z,10.4
2023-04-28T07:42:48.598Z,10.4
2023-04-28T07:43:49.555Z,10.4
2023-04-28T07:44:50.286Z,11
2023-04-28T07:45:51.235Z,11
2023-04-28T07:46:52.461Z,11
2023-04-28T07:47:58.866Z,11
2023-04-28T07:48:59.737Z,11
2023-04-28T07:50:00.662Z,11
2023-04-28T07:51:01.460Z,11
2023-04-28T07:52:02.453Z,11
2023-04-28T07:53:03.341Z,11
2023-04-28T07:54:04.084Z,11
2023-04-28T07:55:04.833Z,11
2023-04-28T07:56:05.734Z,11
2023-04-28T07:57:06.440Z,11
2023-04-28T07:58:07.364Z,11
2023-04-28T08:00:09.790Z,11.3
2023-04-28T08:01:10.763Z,11.3
2023-04-28T08:02:11.539Z,11.3
2023-04-28T08:03:53.884Z,11.3
2023-04-28T08:05:33.296Z,11.3
2023-04-28T08:08:44.544Z,11.3
2023-04-28T08:09:45.228Z,11.3
2023-04-28T08:10:45.952Z,11.3
2023-04-28T08:11:46.675Z,11.3
2023-04-28T08:12:47.298Z,11.3
2023-04-28T08:13:47.812Z,11.3
2023-04-28T08:14:48.526Z,11.3
2023-04-28T08:15:49.150Z,11.3
2023-04-28T08:16:49.778Z,11.3
2023-04-28T08:17:50.308Z,11.3
2023-04-28T08:18:50.887Z,11.3
2023-04-28T08:19:51.352Z,11.3
2023-04-28T08:20:51.914Z,11.3
2023-04-28T08:21:52.579Z,11.3
2023-04-28T08:22:53.173Z,11.3
2023-04-28T08:23:53.867Z,11.3
2023-04-28T08:24:54.363Z,11.3
2023-04-28T08:25:54.909Z,11.3
2023-04-28T08:26:55.430Z,11.3
2023-04-28T08:27:57.048Z,12.3
2023-04-28T08:28:56.511Z,12.3
2023-04-28T08:29:57.041Z,12.3
2023-04-28T08:30:57.597Z,12.3
2023-04-28T08:31:58.266Z,12.3
2023-04-28T08:33:05.721Z,12.3
2023-04-28T08:34:05.446Z,12.3
2023-04-28T08:35:06.008Z,12.3
2023-04-28T08:36:06.522Z,12.3
2023-04-28T08:37:07.036Z,12.3
2023-04-28T08:38:07.608Z,12.3
2023-04-28T08:39:08.391Z,12.3
2023-04-28T08:40:08.858Z,12.3
2023-04-28T08:41:09.390Z,12.3
2023-04-28T08:42:09.916Z,12.3
2023-04-28T08:43:10.653Z,12.3
2023-04-28T08:44:11.345Z,12.3
2023-04-28T08:45:11.953Z,12.3
2023-04-28T08:46:12.729Z,12.3
2023-04-28T08:47:13.257Z,12.3
2023-04-28T08:48:13.832Z,13.1
2023-04-28T08:49:14.463Z,13.1
2023-04-28T08:50:15.109Z,13.1
2023-04-28T08:51:15.649Z,13.1
2023-04-28T08:52:16.191Z,13.1
2023-04-28T08:53:16.708Z,13.1
2023-04-28T08:54:25.961Z,13.1
2023-04-28T08:55:24.021Z,13.1
2023-04-28T08:56:24.553Z,13.1
2023-04-28T08:57:25.280Z,13.1
2023-04-28T08:58:25.885Z,13.1
2023-04-28T08:59:26.477Z,13.1
2023-04-28T09:00:26.945Z,13.1
2023-04-28T09:01:27.490Z,13.1
2023-04-28T09:02:28.232Z,13.1
2023-04-28T09:03:28.833Z,13.1
2023-04-28T09:04:29.287Z,13.1
2023-04-28T09:05:29.843Z,13.1
2023-04-28T09:06:30.285Z,13.1
2023-04-28T09:07:30.963Z,13.1
2023-04-28T09:08:31.488Z,13.6
2023-04-28T09:09:34.938Z,13.6
2023-04-28T09:10:32.664Z,13.6
2023-04-28T09:11:33.347Z,13.6
2023-04-28T09:12:33.871Z,13.6
2023-04-28T09:13:34.495Z,13.6
2023-04-28T09:14:35.206Z,13.6
2023-04-28T09:15:35.945Z,13.6
2023-04-28T09:16:36.652Z,13.6
2023-04-28T09:17:43.079Z,13.6
2023-04-28T09:18:43.544Z,13.6
2023-04-28T09:19:44.273Z,13.6
2023-04-28T09:20:44.981Z,13.6
2023-04-28T09:21:45.700Z,13.6
2023-04-28T09:22:46.220Z,13.6
2023-04-28T09:24:31.879Z,13.4
2023-04-28T09:26:09.392Z,13.4
2023-04-28T09:27:09.852Z,13.4
2023-04-28T09:28:10.364Z,13.4
2023-04-28T09:29:10.920Z,13.4
2023-04-28T09:30:11.440Z,13.4
2023-04-28T09:31:12.007Z,13.4
2023-04-28T09:32:12.685Z,13.4
2023-04-28T09:33:13.115Z,13.4
2023-04-28T09:34:13.826Z,13.4
2023-04-28T09:35:14.161Z,13.4
2023-04-28T09:36:14.736Z,13.4
2023-04-28T09:37:15.405Z,13.4
2023-04-28T09:38:15.975Z,13.4
2023-04-28T09:39:16.651Z,13.4
2023-04-28T09:40:17.304Z,13.4
2023-04-28T09:41:18.015Z,13.4
2023-04-28T09:42:18.525Z,13.4
2023-04-28T09:43:21.780Z,13.4
2023-04-28T10:49:14.601Z,14
2023-04-28T10:50:15.309Z,14
2023-04-28T10:51:16.017Z,14
2023-04-28T10:52:16.743Z,14
2023-04-28T10:53:17.364Z,14
2023-04-28T10:54:18.003Z,14
2023-04-28T10:55:21.926Z,14
2023-04-28T10:56:19.473Z,14
2023-04-28T10:57:20.061Z,14
2023-04-28T10:58:20.603Z,14
2023-04-28T10:59:21.173Z,14
2023-04-28T11:00:21.717Z,14
2023-04-28T11:01:22.590Z,14
2023-04-28T11:02:22.995Z,14
2023-04-28T11:03:23.537Z,14
2023-04-28T11:04:24.489Z,14
2023-04-28T11:05:24.748Z,14
2023-04-28T11:06:25.236Z,14
2023-04-28T11:07:25.794Z,14
2023-04-28T11:08:26.308Z,13.9
2023-04-28T11:09:26.877Z,13.9
2023-04-28T11:10:27.392Z,13.9
2023-04-28T11:11:27.921Z,13.9
2023-04-28T11:12:28.656Z,13.9
2023-04-28T11:13:35.088Z,13.9
2023-04-28T11:14:35.875Z,13.9
2023-04-28T11:15:36.361Z,13.9
2023-04-28T11:16:37.199Z,13.9
2023-04-28T11:17:37.741Z,13.9
2023-04-28T11:18:38.268Z,13.9
2023-04-28T11:19:38.950Z,13.9
2023-04-28T11:20:39.654Z,13.9
2023-04-28T11:21:40.274Z,13.9
2023-04-28T11:22:40.893Z,13.9
2023-04-28T11:23:41.622Z,13.9
2023-04-28T11:24:42.335Z,13.9
2023-04-28T11:25:42.885Z,13.9
2023-04-28T11:26:43.434Z,13.9
2023-04-28T11:27:44.092Z,13.9
2023-04-28T11:28:44.819Z,13.4
2023-04-28T11:29:45.458Z,13.4
2023-04-28T11:30:46.174Z,13.4
2023-04-28T11:31:46.747Z,13.4
2023-04-28T11:32:53.469Z,13.4
2023-04-28T11:33:54.174Z,13.4
2023-04-28T11:34:54.723Z,13.4
2023-04-28T11:35:55.195Z,13.4
2023-04-28T11:36:55.945Z,13.4
2023-04-28T11:37:56.476Z,13.4
2023-04-28T11:38:57.018Z,13.4
2023-04-28T11:39:57.515Z,13.4
2023-04-28T11:40:58.231Z,13.4
2023-04-28T11:41:58.938Z,13.4
2023-04-28T11:43:00.105Z,13.4
2023-04-28T11:44:00.184Z,13.4
2023-04-28T11:45:00.729Z,13.4
2023-04-28T11:46:01.279Z,13.4
2023-04-28T11:47:02.166Z,13.4
2023-04-28T11:48:02.581Z,13.4
2023-04-28T11:49:03.131Z,14.4
2023-04-28T11:50:03.760Z,14.4
2023-04-28T11:51:04.216Z,14.4
2023-04-28T11:52:04.934Z,14.4
2023-04-28T11:53:05.487Z,14.4
2023-04-28T11:54:05.985Z,14.4
2023-04-28T11:55:12.690Z,14.4
2023-04-28T11:56:13.271Z,14.4
2023-04-28T11:57:13.775Z,14.4
2023-04-28T11:58:14.337Z,14.4
2023-04-28T11:59:14.861Z,14.4
2023-04-28T12:00:15.407Z,14.4
2023-04-28T12:01:15.907Z,14.4
2023-04-28T12:02:16.709Z,14.4
2023-04-28T12:03:17.338Z,14.4
2023-04-28T12:04:17.882Z,14.4
2023-04-28T12:05:18.475Z,14.4
2023-04-28T12:06:19.064Z,14.4
2023-04-28T12:07:19.806Z,14.4
2023-04-28T12:08:20.527Z,15.3
2023-04-28T12:09:21.241Z,15.3
2023-04-28T12:10:21.979Z,15.3
2023-04-28T12:11:22.728Z,15.3
2023-04-28T12:12:30.592Z,15.3
2023-04-28T12:13:23.771Z,15.3
2023-04-28T12:14:24.409Z,15.3
2023-04-28T12:15:24.958Z,15.3
2023-04-28T12:16:25.513Z,15.3
2023-04-28T12:17:32.268Z,15.3
2023-04-28T12:18:32.877Z,15.3
2023-04-28T12:19:33.405Z,15.3
2023-04-28T12:20:34.144Z,15.3
2023-04-28T12:21:35.807Z,15.3
2023-04-28T12:22:35.363Z,15.3
2023-04-28T12:23:36.082Z,15.3
2023-04-28T12:24:36.624Z,15.3
2023-04-28T12:25:37.235Z,15.3
2023-04-28T12:26:37.749Z,15.3
2023-04-28T12:27:38.711Z,15.3
2023-04-28T12:28:39.089Z,15.6
2023-04-28T12:29:39.808Z,15.6
2023-04-28T12:30:40.429Z,15.6
2023-04-28T12:31:41.169Z,15.6
2023-04-28T12:32:41.917Z,15.6
2023-04-28T12:33:42.425Z,15.6
2023-04-28T12:34:42.966Z,15.6
2023-04-28T12:35:43.531Z,15.6
2023-04-28T12:36:44.152Z,15.6
2023-04-28T12:37:44.785Z,15.6
2023-04-28T12:38:45.418Z,15.6
2023-04-28T12:39:52.063Z,15.6
2023-04-28T12:40:52.810Z,15.6
2023-04-28T12:41:53.405Z,15.6
2023-04-28T12:42:53.919Z,15.6
2023-04-28T12:43:54.657Z,15.6
2023-04-28T12:44:55.399Z,15.6
2023-04-28T12:45:56.029Z,15.6
2023-04-28T12:46:56.719Z,15.6
2023-04-28T12:47:57.483Z,15.6
2023-04-28T12:48:58.074Z,16.5
2023-04-28T12:49:58.798Z,16.5
2023-04-28T12:50:59.376Z,16.5
2023-04-28T12:52:00.055Z,16.5
2023-04-28T12:53:00.574Z,16.5
2023-04-28T12:54:01.175Z,16.5
2023-04-28T12:55:01.730Z,16.5
2023-04-28T12:56:02.309Z,16.5
2023-04-28T12:57:02.897Z,16.5
2023-04-28T12:58:03.663Z,16.5
2023-04-28T12:59:10.048Z,16.5
2023-04-28T13:00:10.648Z,16.5
2023-04-28T13:01:11.445Z,16.5
2023-04-28T13:02:11.885Z,16.5
2023-04-28T13:03:12.519Z,16.5
2023-04-28T13:04:13.109Z,16.5
2023-04-28T13:05:13.750Z,16.5
2023-04-28T13:06:14.491Z,16.5
2023-04-28T13:07:15.203Z,16.5
2023-04-28T13:08:15.930Z,16.5
2023-04-28T13:09:16.482Z,17.9
2023-04-28T13:10:17.160Z,17.9
2023-04-28T13:11:22.582Z,17.9
2023-04-28T13:12:18.388Z,17.9
2023-04-28T13:13:55.740Z,17.9
2023-04-28T13:14:56.394Z,17.9
2023-04-28T13:15:57.053Z,17.9
2023-04-28T13:16:57.757Z,17.9
2023-04-28T13:17:58.294Z,17.9
2023-04-28T13:18:58.991Z,17.9
2023-04-28T13:19:59.527Z,17.9
2023-04-28T13:21:00.232Z,17.9
2023-04-28T13:22:00.900Z,17.9
2023-04-28T13:23:01.586Z,17.9
2023-04-28T13:24:02.299Z,17.9
2023-04-28T13:25:02.827Z,17.9
2023-04-28T13:26:03.337Z,17.9
2023-04-28T13:27:15.701Z,18.4
2023-04-28T13:28:16.455Z,18.4
2023-04-28T13:29:16.965Z,18.4
2023-04-28T13:30:17.484Z,18.4
2023-04-28T13:31:18.067Z,18.4
2023-04-28T13:32:18.622Z,18.4
2023-04-28T13:33:19.366Z,18.4
2023-04-28T13:34:19.980Z,18.4
2023-04-28T13:35:20.604Z,18.4
2023-04-28T13:36:21.121Z,18.4
2023-04-28T13:37:21.670Z,18.4
2023-04-28T13:38:22.219Z,18.4
2023-04-28T13:39:22.765Z,18.4
2023-04-28T13:40:23.300Z,18.4
2023-04-28T13:41:23.835Z,18.4
2023-04-28T13:42:24.373Z,18.4
2023-04-28T13:43:25.053Z,18.4
2023-04-28T13:44:25.604Z,18.4
2023-04-28T13:45:26.331Z,18.4
2023-04-28T13:46:27.024Z,18.5
2023-04-28T13:47:27.777Z,18.5
2023-04-28T13:48:28.273Z,18.5
2023-04-28T13:49:28.889Z,18.5
2023-04-28T13:50:29.411Z,18.5
2023-04-28T13:51:35.972Z,18.5
2023-04-28T13:52:36.623Z,18.5
2023-04-28T13:53:37.133Z,18.5
2023-04-28T13:54:37.668Z,18.5
2023-04-28T13:55:38.268Z,18.5
2023-04-28T13:56:38.865Z,18.5
2023-04-28T13:57:39.399Z,18.5
2023-04-28T13:58:39.952Z,18.5
2023-04-28T13:59:40.502Z,18.5
2023-04-28T14:00:41.041Z,18.5
2023-04-28T14:01:41.642Z,18.5
2023-04-28T14:02:42.460Z,18.5
2023-04-28T14:03:43.056Z,18.5
2023-04-28T14:04:43.655Z,18.5
2023-04-28T14:05:49.154Z,18.5
2023-04-28T14:06:44.867Z,18.8
2023-04-28T14:07:45.402Z,18.8
2023-04-28T14:08:45.907Z,18.8
